createdAt,value
2023-04-03T00:00:22.072Z,87.25
2023-04-03T00:03:11.515Z,86.63
2023-04-03T00:05:42.763Z,85.40
2023-04-03T00:08:13.733Z,82.98
2023-04-03T00:10:43.795Z,82.75
2023-04-03T00:13:15.121Z,81.80
2023-04-03T00:15:45.092Z,81.29
2023-04-03T00:18:14.604Z,79.76
2023-04-03T00:20:44.394Z,79.80
2023-04-03T00:23:13.682Z,78.84
2023-04-03T00:25:44.482Z,78.79
2023-04-03T00:28:14.548Z,78.54
2023-04-03T00:30:44.761Z,78.55
2023-04-03T00:33:15.213Z,78.68
2023-04-03T00:35:46.683Z,78.22
2023-04-03T00:38:17.226Z,78.16
2023-04-03T00:40:50.330Z,77.46
2023-04-03T00:43:27.048Z,77.33
2023-04-03T00:46:02.058Z,76.68
2023-04-03T00:48:41.917Z,77.02
2023-04-03T00:51:26.943Z,76.81
2023-04-03T00:54:04.617Z,75.98
2023-04-03T00:56:38.675Z,76.15
2023-04-03T00:59:24.633Z,76.37
2023-04-03T01:01:57.833Z,76.63
2023-04-03T01:04:33.095Z,76.26
2023-04-03T01:07:20.170Z,76.09
2023-04-03T01:09:55.006Z,76.35
2023-04-03T01:12:34.594Z,76.02
2023-04-03T01:15:11.745Z,75.96
2023-04-03T01:17:50.738Z,75.89
2023-04-03T01:20:32.518Z,76.03
2023-04-03T01:23:18.697Z,75.84
2023-04-03T01:25:56.177Z,75.84
2023-04-03T01:28:35.858Z,76.04
2023-04-03T01:31:29.476Z,76.34
2023-04-03T01:33:59.274Z,75.94
2023-04-03T01:36:32.761Z,76.30
2023-04-03T01:39:02.433Z,76.25
2023-04-03T01:41:32.533Z,76.37
2023-04-03T01:44:12.732Z,76.23
2023-04-03T01:46:43.866Z,76.30
2023-04-03T01:49:13.946Z,76.06
2023-04-03T01:51:43.796Z,75.67
2023-04-03T01:54:13.654Z,75.78
2023-04-03T01:56:43.495Z,75.67
2023-04-03T01:59:13.775Z,75.98
2023-04-03T02:01:46.678Z,76.11
2023-04-03T02:04:16.467Z,75.76
2023-04-03T02:06:45.988Z,75.94
2023-04-03T02:09:17.036Z,75.90
2023-04-03T02:11:46.775Z,75.84
2023-04-03T02:14:17.085Z,76.28
2023-04-03T02:16:50.889Z,76.01
2023-04-03T02:19:21.191Z,76.24
2023-04-03T02:21:52.181Z,76.34
2023-04-03T02:24:22.479Z,76.40
2023-04-03T02:26:52.380Z,76.63
2023-04-03T02:29:28.030Z,76.95
2023-04-03T02:31:58.318Z,76.69
2023-04-03T02:34:28.503Z,76.96
2023-04-03T02:37:00.152Z,77.10
2023-04-03T02:39:29.497Z,77.17
2023-04-03T02:41:59.469Z,77.64
2023-04-03T02:44:30.643Z,77.54
2023-04-03T02:47:01.701Z,78.15
2023-04-03T02:49:31.607Z,78.34
2023-04-03T02:52:01.554Z,78.26
2023-04-03T02:54:33.744Z,78.43
2023-04-03T02:57:07.190Z,78.74
2023-04-03T02:59:42.970Z,79.02
2023-04-03T03:02:13.901Z,79.19
2023-04-03T03:04:44.519Z,79.12
2023-04-03T03:07:14.573Z,79.28
2023-04-03T03:09:46.285Z,79.65
2023-04-03T03:12:16.108Z,79.93
2023-04-03T03:14:45.532Z,80.17
2023-04-03T03:17:16.115Z,80.32
2023-04-03T03:19:50.163Z,80.63
2023-04-03T03:22:20.295Z,80.78
2023-04-03T03:24:49.975Z,81.14
2023-04-03T03:27:20.262Z,81.19
2023-04-03T03:29:50.269Z,81.57
2023-04-03T03:32:20.791Z,81.96
2023-04-03T03:34:53.063Z,82.13
2023-04-03T03:37:24.066Z,82.32
2023-04-03T03:39:54.115Z,82.72
2023-04-03T03:42:25.201Z,82.83
2023-04-03T03:44:54.924Z,82.85
2023-04-03T03:47:25.689Z,82.96
2023-04-03T03:49:55.137Z,83.26
2023-04-03T03:52:25.660Z,83.48
2023-04-03T03:54:56.534Z,83.56
2023-04-03T03:57:28.461Z,83.54
2023-04-03T03:59:58.243Z,83.33
2023-04-03T04:02:28.522Z,83.29
2023-04-03T04:04:58.336Z,83.32
2023-04-03T04:07:29.884Z,83.24
2023-04-03T04:10:01.249Z,83.40
2023-04-03T04:12:30.525Z,83.09
2023-04-03T04:15:05.779Z,83.18
2023-04-03T04:17:38.038Z,82.88
2023-04-03T04:20:18.787Z,82.93
2023-04-03T04:22:50.491Z,82.79
2023-04-03T04:25:21.067Z,82.91
2023-04-03T04:27:51.004Z,82.33
2023-04-03T04:30:21.057Z,82.46
2023-04-03T04:32:52.563Z,82.30
2023-04-03T04:35:23.604Z,82.19
2023-04-03T04:37:53.951Z,81.76
2023-04-03T04:40:24.989Z,81.74
2023-04-03T04:42:55.113Z,81.89
2023-04-03T04:45:26.464Z,81.66
2023-04-03T04:48:00.311Z,81.86
2023-04-03T04:50:30.958Z,81.31
2023-04-03T04:53:00.415Z,81.18
2023-04-03T04:55:29.909Z,81.06
2023-04-03T04:57:59.565Z,80.94
2023-04-03T05:00:28.867Z,81.11
2023-04-03T05:02:59.481Z,80.84
2023-04-03T05:05:29.553Z,80.48
2023-04-03T05:07:59.986Z,80.30
2023-04-03T05:10:30.170Z,80.20
2023-04-03T05:13:00.018Z,80.28
2023-04-03T05:15:30.003Z,80.50
2023-04-03T05:18:01.722Z,80.07
2023-04-03T05:20:33.233Z,80.28
2023-04-03T05:23:03.115Z,79.61
2023-04-03T05:25:33.830Z,80.11
2023-04-03T05:28:08.456Z,79.64
2023-04-03T05:30:38.357Z,79.69
2023-04-03T05:33:08.867Z,79.56
2023-04-03T05:35:49.155Z,78.82
2023-04-03T05:38:21.928Z,77.93
2023-04-03T05:40:52.183Z,77.98
2023-04-03T05:43:22.304Z,77.01
2023-04-03T05:45:53.692Z,76.74
2023-04-03T05:48:24.327Z,76.57
2023-04-03T05:50:54.699Z,76.10
2023-04-03T05:53:30.974Z,76.20
2023-04-03T05:56:03.935Z,75.90
2023-04-03T05:58:35.135Z,76.39
2023-04-03T06:01:05.097Z,76.54
2023-04-03T06:03:38.587Z,76.00
2023-04-03T06:06:15.681Z,76.02
2023-04-03T06:08:47.687Z,75.72
2023-04-03T06:11:18.087Z,75.70
2023-04-03T06:13:49.427Z,75.99
2023-04-03T06:16:21.027Z,75.63
2023-04-03T06:18:51.395Z,76.00
2023-04-03T06:21:21.224Z,76.12
2023-04-03T06:23:53.274Z,75.63
2023-04-03T06:26:23.878Z,75.88
2023-04-03T06:28:53.510Z,75.18
2023-04-03T06:31:23.688Z,74.45
2023-04-03T06:33:54.061Z,74.95
2023-04-03T06:36:24.457Z,75.19
2023-04-03T06:38:53.869Z,74.80
2023-04-03T06:41:23.474Z,74.48
2023-04-03T06:43:53.304Z,74.31
2023-04-03T06:46:26.124Z,74.78
2023-04-03T06:48:56.494Z,74.50
2023-04-03T06:51:28.910Z,74.10
2023-04-03T06:54:00.947Z,73.79
2023-04-03T06:56:30.483Z,73.73
2023-04-03T06:59:01.174Z,73.77
2023-04-03T07:01:32.192Z,73.47
2023-04-03T07:04:02.571Z,73.61
2023-04-03T07:06:35.073Z,73.58
2023-04-03T07:09:06.770Z,72.81
2023-04-03T07:11:37.810Z,73.41
2023-04-03T07:14:09.561Z,72.29
2023-04-03T07:16:42.898Z,72.23
2023-04-03T07:19:13.339Z,72.02
2023-04-03T07:21:43.504Z,70.86
2023-04-03T07:24:16.203Z,70.17
2023-04-03T07:26:46.773Z,70.47
2023-04-03T07:29:16.474Z,70.48
2023-04-03T07:31:48.450Z,70.11
2023-04-03T07:34:29.189Z,70.52
2023-04-03T07:37:01.511Z,70.95
2023-04-03T07:39:33.714Z,70.56
2023-04-03T07:42:03.752Z,70.21
2023-04-03T07:44:34.140Z,70.05
2023-04-03T07:47:04.052Z,70.19
2023-04-03T07:49:34.788Z,69.42
2023-04-03T07:52:14.196Z,69.50
2023-04-03T07:55:09.800Z,69.13
2023-04-03T07:57:39.899Z,69.64
2023-04-03T08:00:11.419Z,69.40
2023-04-03T08:02:46.138Z,69.46
2023-04-03T08:05:19.654Z,69.35
2023-04-03T08:07:50.384Z,69.49
2023-04-03T08:10:20.032Z,69.01
2023-04-03T08:12:50.376Z,68.73
2023-04-03T08:15:19.803Z,68.98
2023-04-03T08:17:49.204Z,68.47
2023-04-03T08:20:21.354Z,67.56
2023-04-03T08:22:50.950Z,67.31
2023-04-03T08:25:26.554Z,67.08
2023-04-03T08:27:57.366Z,67.06
2023-04-03T08:30:30.158Z,67.13
2023-04-03T08:33:03.979Z,66.70
2023-04-03T08:35:43.593Z,66.28
2023-04-03T08:38:16.545Z,66.40
2023-04-03T08:40:47.004Z,66.18
2023-04-03T08:43:37.386Z,65.66
2023-04-03T08:46:13.945Z,65.83
2023-04-03T08:48:45.332Z,66.02
2023-04-03T08:51:22.014Z,65.01
2023-04-03T08:54:10.832Z,63.31
2023-04-03T08:56:42.548Z,62.02
2023-04-03T08:59:23.166Z,61.97
2023-04-03T09:01:55.818Z,62.45
2023-04-03T09:04:29.701Z,62.28
2023-04-03T09:07:10.511Z,61.59
2023-04-03T09:09:52.457Z,60.62
2023-04-03T09:12:34.545Z,60.14
2023-04-03T09:15:27.848Z,59.85
2023-04-03T09:18:22.254Z,59.04
2023-04-03T09:21:34.949Z,58.33
2023-04-03T09:24:08.913Z,58.68
2023-04-03T09:26:53.102Z,58.59
2023-04-03T09:29:25.394Z,59.10
2023-04-03T09:31:58.485Z,59.21
2023-04-03T09:34:33.518Z,59.56
2023-04-03T09:37:10.673Z,60.31
2023-04-03T09:39:52.884Z,60.39
2023-04-03T09:42:27.906Z,60.23
2023-04-03T09:45:03.677Z,60.37
2023-04-03T09:47:37.963Z,60.40
2023-04-03T09:50:14.437Z,60.60
2023-04-03T09:52:47.952Z,60.92
2023-04-03T09:55:29.568Z,61.13
2023-04-03T09:58:05.012Z,61.15
2023-04-03T10:00:44.902Z,61.65
2023-04-03T10:03:49.312Z,61.59
2023-04-03T10:06:25.795Z,62.07
2023-04-03T10:09:07.037Z,62.15
2023-04-03T10:11:37.303Z,62.43
2023-04-03T10:14:18.972Z,61.88
2023-04-03T10:16:57.559Z,61.29
2023-04-03T10:19:45.953Z,61.62
2023-04-03T10:22:27.893Z,61.67
2023-04-03T10:25:24.838Z,62.38
2023-04-03T10:28:09.084Z,62.40
2023-04-03T10:31:03.493Z,63.43
2023-04-03T10:33:56.415Z,63.58
2023-04-03T10:36:46.649Z,62.64
2023-04-03T10:39:32.416Z,62.06
2023-04-03T10:42:35.958Z,61.61
2023-04-03T10:45:32.453Z,62.13
2023-04-03T10:48:22.938Z,62.73
2023-04-03T10:51:03.478Z,62.40
2023-04-03T10:54:06.702Z,61.25
2023-04-03T10:56:58.030Z,61.25
2023-04-03T10:59:38.796Z,61.79
2023-04-03T11:02:17.972Z,61.69
2023-04-03T11:05:04.199Z,61.91
2023-04-03T11:07:47.760Z,62.42
2023-04-03T11:10:43.825Z,62.16
2023-04-03T11:13:26.771Z,62.32
2023-04-03T11:15:58.695Z,62.50
2023-04-03T11:19:03.500Z,62.99
2023-04-03T11:21:43.726Z,63.65
2023-04-03T11:24:33.963Z,63.01
2023-04-03T11:27:06.616Z,62.71
2023-04-03T11:29:42.376Z,62.67
2023-04-03T11:32:26.982Z,62.64
2023-04-03T11:35:01.630Z,62.82
2023-04-03T11:37:41.651Z,62.84
2023-04-03T11:40:19.650Z,62.88
2023-04-03T11:42:56.931Z,63.26
2023-04-03T11:45:26.648Z,62.62
2023-04-03T11:47:57.728Z,62.52
2023-04-03T11:50:36.934Z,63.00
2023-04-03T11:53:09.566Z,62.86
2023-04-03T11:55:55.391Z,63.47
2023-04-03T11:58:31.884Z,62.66
2023-04-03T12:01:43.214Z,63.21
2023-04-03T12:04:18.410Z,63.42
2023-04-03T12:06:48.978Z,63.38
2023-04-03T12:09:35.115Z,63.65
2023-04-03T12:12:32.532Z,63.37
2023-04-03T12:15:50.996Z,63.80
2023-04-03T12:18:46.238Z,63.22
2023-04-03T12:21:20.611Z,63.48
2023-04-03T12:24:25.425Z,64.54
2023-04-03T12:27:04.819Z,65.35
2023-04-03T12:29:49.225Z,65.25
2023-04-03T12:32:37.977Z,65.41
2023-04-03T12:35:26.826Z,66.06
2023-04-03T12:38:35.859Z,67.40
2023-04-03T12:41:20.597Z,67.19
2023-04-03T12:44:18.317Z,67.99
2023-04-03T12:46:52.023Z,68.09
2023-04-03T12:49:30.785Z,68.10
2023-04-03T12:52:02.085Z,68.27
2023-04-03T12:54:45.156Z,68.07
2023-04-03T12:57:22.151Z,68.11
2023-04-03T12:59:53.080Z,67.98
2023-04-03T13:02:38.855Z,67.70
2023-04-03T13:05:11.977Z,67.65
2023-04-03T13:07:44.821Z,67.35
2023-04-03T13:10:18.873Z,66.58
2023-04-03T13:12:55.063Z,66.42
2023-04-03T13:15:32.077Z,66.21
2023-04-03T13:18:03.307Z,66.08
2023-04-03T13:20:37.265Z,66.33
2023-04-03T13:23:10.748Z,66.01
2023-04-03T13:25:50.775Z,66.10
2023-04-03T13:28:25.059Z,65.92
2023-04-03T13:31:32.635Z,65.79
2023-04-03T13:34:12.533Z,66.02
2023-04-03T13:36:54.971Z,66.09
2023-04-03T13:39:30.390Z,65.21
2023-04-03T13:42:04.133Z,65.60
2023-04-03T13:44:41.270Z,65.61
2023-04-03T13:47:11.705Z,65.21
2023-04-03T13:49:44.675Z,64.95
2023-04-03T13:52:28.633Z,64.49
2023-04-03T13:55:25.201Z,64.69
2023-04-03T13:58:04.737Z,64.87
2023-04-03T14:00:33.849Z,65.00
2023-04-03T14:03:23.671Z,65.46
2023-04-03T14:05:54.931Z,66.02
2023-04-03T14:08:32.605Z,65.99
2023-04-03T14:11:19.426Z,65.93
2023-04-03T14:13:51.939Z,65.90
2023-04-03T14:16:23.615Z,66.22
2023-04-03T14:18:54.371Z,66.50
2023-04-03T14:21:24.756Z,67.13
2023-04-03T14:23:55.637Z,67.52
2023-04-03T14:26:28.584Z,67.24
2023-04-03T14:28:58.848Z,67.55
2023-04-03T14:31:28.944Z,67.42
2023-04-03T14:34:01.821Z,67.36
2023-04-03T14:36:33.987Z,66.75
2023-04-03T14:39:10.360Z,66.75
2023-04-03T14:41:43.560Z,66.88
2023-04-03T14:44:16.435Z,67.07
2023-04-03T14:46:56.341Z,67.01
2023-04-03T14:49:30.634Z,67.13
2023-04-03T14:52:00.251Z,66.67
2023-04-03T14:54:30.643Z,66.83
2023-04-03T14:57:02.274Z,66.58
2023-04-03T14:59:33.717Z,66.13
2023-04-03T15:02:03.427Z,66.04
2023-04-03T15:04:36.648Z,66.02
2023-04-03T15:07:05.999Z,66.21
2023-04-03T15:09:38.831Z,65.95
2023-04-03T15:12:11.446Z,65.41
2023-04-03T15:14:52.449Z,65.54
2023-04-03T15:17:25.464Z,65.37
2023-04-03T15:19:55.537Z,65.21
2023-04-03T15:22:25.273Z,64.99
2023-04-03T15:24:54.508Z,65.16
2023-04-03T15:27:24.131Z,65.07
2023-04-03T15:29:54.848Z,65.39
2023-04-03T15:32:24.766Z,65.32
2023-04-03T15:34:56.854Z,65.10
2023-04-03T15:37:26.625Z,64.71
2023-04-03T15:39:56.870Z,64.85
2023-04-03T15:42:26.770Z,65.01
2023-04-03T15:44:57.464Z,64.96
2023-04-03T15:47:28.406Z,65.13
2023-04-03T15:49:58.216Z,64.91
2023-04-03T15:52:28.369Z,64.59
2023-04-03T15:54:58.315Z,63.68
2023-04-03T15:57:28.325Z,63.97
2023-04-03T15:59:58.646Z,64.41
2023-04-03T16:02:29.076Z,64.12
2023-04-03T16:04:59.306Z,64.08
2023-04-03T16:07:28.854Z,63.86
2023-04-03T16:09:59.220Z,63.90
2023-04-03T16:12:28.503Z,64.30
2023-04-03T16:14:58.181Z,64.29
2023-04-03T16:17:29.315Z,64.33
2023-04-03T16:20:01.283Z,64.34
2023-04-03T16:22:31.967Z,64.37
2023-04-03T16:25:01.347Z,63.93
2023-04-03T16:27:32.392Z,63.97
2023-04-03T16:30:03.100Z,63.45
2023-04-03T16:32:33.642Z,63.63
2023-04-03T16:35:03.334Z,63.43
2023-04-03T16:37:33.491Z,63.67
2023-04-03T16:40:07.295Z,63.73
2023-04-03T16:42:38.014Z,63.68
2023-04-03T16:45:09.518Z,63.56
2023-04-03T16:47:39.116Z,63.34
2023-04-03T16:50:10.159Z,63.64
2023-04-03T16:52:41.695Z,63.75
2023-04-03T16:55:11.531Z,63.26
2023-04-03T16:57:42.945Z,63.02
2023-04-03T17:00:13.805Z,62.96
2023-04-03T17:02:43.494Z,62.87
2023-04-03T17:05:13.158Z,62.76
2023-04-03T17:07:42.861Z,61.89
2023-04-03T17:10:15.928Z,61.60
2023-04-03T17:12:45.877Z,61.45
2023-04-03T17:15:16.615Z,61.69
2023-04-03T17:17:46.369Z,61.59
2023-04-03T17:20:16.579Z,61.64
2023-04-03T17:22:45.996Z,61.62
2023-04-03T17:25:16.469Z,61.65
2023-04-03T17:27:46.139Z,61.90
2023-04-03T17:30:16.884Z,61.81
2023-04-03T17:32:47.766Z,61.33
2023-04-03T17:35:18.822Z,61.40
2023-04-03T17:37:53.322Z,61.19
2023-04-03T17:40:22.728Z,61.29
2023-04-03T17:42:53.572Z,61.38
2023-04-03T17:45:24.752Z,61.42
2023-04-03T17:47:55.371Z,61.47
2023-04-03T17:50:24.919Z,61.47
2023-04-03T17:52:54.701Z,61.41
2023-04-03T17:55:27.873Z,61.85
2023-04-03T17:57:57.826Z,61.69
2023-04-03T18:00:28.717Z,61.71
2023-04-03T18:03:16.717Z,61.77
2023-04-03T18:06:07.718Z,61.57
2023-04-03T18:08:48.394Z,61.47
2023-04-03T18:11:22.267Z,60.98
2023-04-03T18:13:53.271Z,61.30
2023-04-03T18:16:22.753Z,61.26
2023-04-03T18:19:02.553Z,61.27
2023-04-03T18:21:46.365Z,61.35
2023-04-03T18:24:19.008Z,61.63
2023-04-03T18:26:57.939Z,61.87
2023-04-03T18:29:38.826Z,61.95
2023-04-03T18:32:10.946Z,61.73
2023-04-03T18:34:40.954Z,61.88
2023-04-03T18:37:11.669Z,61.58
2023-04-03T18:39:42.068Z,62.19
2023-04-03T18:42:17.639Z,61.68
2023-04-03T18:44:54.080Z,61.79
2023-04-03T18:47:23.475Z,61.85
2023-04-03T18:49:54.112Z,62.15
2023-04-03T18:52:25.863Z,62.02
2023-04-03T18:54:57.480Z,61.93
2023-04-03T18:57:29.113Z,61.87
2023-04-03T18:59:58.618Z,61.88
2023-04-03T19:02:30.503Z,61.73
2023-04-03T19:05:02.081Z,61.90
2023-04-03T19:07:32.875Z,61.94
2023-04-03T19:10:02.848Z,61.98
2023-04-03T19:12:32.917Z,62.04
2023-04-03T19:15:04.531Z,62.13
2023-04-03T19:17:33.844Z,61.95
2023-04-03T19:20:05.188Z,61.88
2023-04-03T19:22:36.084Z,61.72
2023-04-03T19:25:08.244Z,61.70
2023-04-03T19:27:38.796Z,61.56
2023-04-03T19:30:12.445Z,61.40
2023-04-03T19:32:42.611Z,61.94
2023-04-03T19:35:12.443Z,61.98
2023-04-03T19:37:43.576Z,61.58
2023-04-03T19:40:14.031Z,61.74
2023-04-03T19:42:43.362Z,62.03
2023-04-03T19:45:16.232Z,62.00
2023-04-03T19:47:47.791Z,62.23
2023-04-03T19:50:17.873Z,62.08
2023-04-03T19:52:48.553Z,62.01
2023-04-03T19:55:18.806Z,61.74
2023-04-03T19:57:48.474Z,61.82
2023-04-03T20:00:21.025Z,61.90
2023-04-03T20:02:51.074Z,61.44
2023-04-03T20:05:22.024Z,61.51
2023-04-03T20:07:51.956Z,61.85
2023-04-03T20:10:22.091Z,61.73
2023-04-03T20:12:51.830Z,61.35
2023-04-03T20:15:21.843Z,61.48
2023-04-03T20:17:51.380Z,61.36
2023-04-03T20:20:20.925Z,61.55
2023-04-03T20:22:53.194Z,61.67
2023-04-03T20:25:43.725Z,61.93
2023-04-03T20:28:16.185Z,61.81
2023-04-03T20:30:48.554Z,62.07
2023-04-03T20:33:19.633Z,61.93
2023-04-03T20:35:51.919Z,61.95
2023-04-03T20:38:23.679Z,62.16
2023-04-03T20:40:55.094Z,62.23
2023-04-03T20:43:25.806Z,62.43
2023-04-03T20:45:55.073Z,62.49
2023-04-03T20:48:24.298Z,62.84
2023-04-03T20:50:53.825Z,62.97
2023-04-03T20:53:23.543Z,62.74
2023-04-03T20:56:00.753Z,62.39
2023-04-03T20:58:33.716Z,62.54
2023-04-03T21:01:03.461Z,62.63
2023-04-03T21:03:34.410Z,63.06
2023-04-03T21:06:06.758Z,63.70
2023-04-03T21:09:13.655Z,64.38
2023-04-03T21:12:20.914Z,64.56
2023-04-03T21:15:28.819Z,64.91
2023-04-03T21:18:09.767Z,64.86
2023-04-03T21:20:40.748Z,65.09
2023-04-03T21:23:10.612Z,65.19
2023-04-03T21:25:41.104Z,65.37
2023-04-03T21:28:10.608Z,65.39
2023-04-03T21:30:40.264Z,65.27
2023-04-03T21:33:12.894Z,65.16
2023-04-03T21:35:42.673Z,65.24
2023-04-03T21:38:12.725Z,65.36
2023-04-03T21:40:47.515Z,65.19
2023-04-03T21:43:17.364Z,65.41
2023-04-03T21:45:48.495Z,65.42
2023-04-03T21:48:20.647Z,65.60
2023-04-03T21:50:54.669Z,65.95
2023-04-03T21:53:24.594Z,65.76
2023-04-03T21:58:50.483Z,66.27
2023-04-03T22:01:21.487Z,66.21
2023-04-03T22:03:51.251Z,66.53
2023-04-03T22:06:20.263Z,66.92
2023-04-03T22:08:49.800Z,67.17
2023-04-03T22:11:21.796Z,67.56
2023-04-03T22:13:55.383Z,67.46
2023-04-03T22:16:25.842Z,67.50
2023-04-03T22:18:57.524Z,68.05
2023-04-03T22:21:27.485Z,67.78
2023-04-03T22:23:58.683Z,67.67
2023-04-03T22:26:29.173Z,68.00
2023-04-03T22:28:58.855Z,68.31
2023-04-03T22:31:28.208Z,68.30
2023-04-03T22:33:58.280Z,68.08
2023-04-03T22:36:28.111Z,68.43
2023-04-03T22:38:58.107Z,68.66
2023-04-03T22:41:27.354Z,68.85
2023-04-03T22:43:58.217Z,69.37
2023-04-03T22:46:28.664Z,69.38
2023-04-03T22:48:58.052Z,69.92
2023-04-03T22:51:28.478Z,69.30
2023-04-03T22:53:58.848Z,69.49
2023-04-03T22:56:28.775Z,69.14
2023-04-03T22:59:00.205Z,69.04
2023-04-03T23:01:31.117Z,68.85
2023-04-03T23:04:01.304Z,69.03
2023-04-03T23:06:30.450Z,69.10
2023-04-03T23:09:03.201Z,68.94
2023-04-03T23:11:32.523Z,69.81
2023-04-03T23:14:03.563Z,69.69
2023-04-03T23:16:33.529Z,69.92
2023-04-03T23:19:04.828Z,70.61
2023-04-03T23:21:34.819Z,71.33
2023-04-03T23:24:04.760Z,72.24
2023-04-03T23:26:34.637Z,72.50
2023-04-03T23:29:06.010Z,72.12
2023-04-03T23:31:35.891Z,72.61
2023-04-03T23:34:06.851Z,72.69
2023-04-03T23:36:38.681Z,73.08
2023-04-03T23:39:09.319Z,73.04
2023-04-03T23:41:38.828Z,72.99
2023-04-03T23:44:08.802Z,73.25
2023-04-03T23:46:39.645Z,73.21
2023-04-03T23:49:09.983Z,73.66
2023-04-03T23:51:39.923Z,73.68
2023-04-03T23:54:09.672Z,74.43
2023-04-03T23:56:40.123Z,74.95
2023-04-03T23:59:10.735Z,75.36
